sensor_id;sensor_type;location;lat;lon;timestamp;P1;durP1;ratioP1;P2;durP2;ratioP2
22665;SDS011;11499;49.486;11.104;2023-03-29T00:01:17;4.07;;;1.70;;
22665;SDS011;11499;49.486;11.104;2023-03-29T00:06:39;4.00;;;2.07;;
22665;SDS011;11499;49.486;11.104;2023-03-29T00:09:06;2.67;;;1.83;;
22665;SDS011;11499;49.486;11.104;2023-03-29T00:11:33;4.00;;;1.73;;
22665;SDS011;11499;49.486;11.104;2023-03-29T00:13:59;2.43;;;1.80;;
22665;SDS011;11499;49.486;11.104;2023-03-29T00:16:24;2.90;;;1.80;;
22665;SDS011;11499;49.486;11.104;2023-03-29T00:18:50;4.13;;;1.90;;
22665;SDS011;11499;49.486;11.104;2023-03-29T00:21:16;4.07;;;1.90;;
22665;SDS011;11499;49.486;11.104;2023-03-29T00:23:41;3.07;;;1.93;;
22665;SDS011;11499;49.486;11.104;2023-03-29T00:26:07;2.90;;;1.90;;
22665;SDS011;11499;49.486;11.104;2023-03-29T00:32:09;3.97;;;2.00;;
22665;SDS011;11499;49.486;11.104;2023-03-29T00:34:34;7.03;;;2.20;;
22665;SDS011;11499;49.486;11.104;2023-03-29T00:37:00;2.50;;;1.80;;
22665;SDS011;11499;49.486;11.104;2023-03-29T00:39:26;2.80;;;2.00;;
22665;SDS011;11499;49.486;11.104;2023-03-29T00:41:53;2.60;;;2.10;;
22665;SDS011;11499;49.486;11.104;2023-03-29T00:47:31;3.40;;;1.83;;
22665;SDS011;11499;49.486;11.104;2023-03-29T00:50:13;2.33;;;1.70;;
22665;SDS011;11499;49.486;11.104;2023-03-29T00:53:00;4.83;;;2.10;;
22665;SDS011;11499;49.486;11.104;2023-03-29T00:55:28;3.27;;;2.00;;
22665;SDS011;11499;49.486;11.104;2023-03-29T00:59:47;4.27;;;1.90;;
22665;SDS011;11499;49.486;11.104;2023-03-29T01:02:15;3.17;;;1.87;;
22665;SDS011;11499;49.486;11.104;2023-03-29T01:04:54;3.07;;;2.03;;
22665;SDS011;11499;49.486;11.104;2023-03-29T01:13:01;3.33;;;2.00;;
22665;SDS011;11499;49.486;11.104;2023-03-29T01:15:31;2.87;;;1.90;;
22665;SDS011;11499;49.486;11.104;2023-03-29T01:17:57;3.40;;;2.03;;
22665;SDS011;11499;49.486;11.104;2023-03-29T01:23:22;2.90;;;2.00;;
22665;SDS011;11499;49.486;11.104;2023-03-29T01:28:07;2.70;;;2.00;;
22665;SDS011;11499;49.486;11.104;2023-03-29T01:30:44;3.50;;;1.70;;
22665;SDS011;11499;49.486;11.104;2023-03-29T01:33:38;2.23;;;1.63;;
22665;SDS011;11499;49.486;11.104;2023-03-29T01:36:14;3.13;;;1.83;;
22665;SDS011;11499;49.486;11.104;2023-03-29T01:38:46;4.33;;;1.80;;
22665;SDS011;11499;49.486;11.104;2023-03-29T01:47:03;5.40;;;2.10;;
22665;SDS011;11499;49.486;11.104;2023-03-29T01:49:39;3.43;;;1.83;;
22665;SDS011;11499;49.486;11.104;2023-03-29T01:55:11;3.10;;;2.00;;
22665;SDS011;11499;49.486;11.104;2023-03-29T01:57:41;3.20;;;2.10;;
22665;SDS011;11499;49.486;11.104;2023-03-29T02:00:15;6.30;;;2.20;;
22665;SDS011;11499;49.486;11.104;2023-03-29T02:02:44;2.10;;;1.90;;
22665;SDS011;11499;49.486;11.104;2023-03-29T02:05:12;3.00;;;2.20;;
22665;SDS011;11499;49.486;11.104;2023-03-29T02:07:39;3.63;;;2.17;;
22665;SDS011;11499;49.486;11.104;2023-03-29T02:10:07;4.00;;;2.10;;
22665;SDS011;11499;49.486;11.104;2023-03-29T02:12:35;2.83;;;2.20;;
22665;SDS011;11499;49.486;11.104;2023-03-29T02:15:02;3.20;;;2.10;;
22665;SDS011;11499;49.486;11.104;2023-03-29T02:17:35;2.50;;;2.27;;
22665;SDS011;11499;49.486;11.104;2023-03-29T02:23:00;3.23;;;2.43;;
22665;SDS011;11499;49.486;11.104;2023-03-29T02:25:33;3.50;;;2.37;;
22665;SDS011;11499;49.486;11.104;2023-03-29T02:28:01;4.43;;;2.30;;
22665;SDS011;11499;49.486;11.104;2023-03-29T02:30:29;4.10;;;2.50;;
22665;SDS011;11499;49.486;11.104;2023-03-29T02:33:06;2.77;;;2.20;;
22665;SDS011;11499;49.486;11.104;2023-03-29T02:35:47;3.40;;;2.10;;
22665;SDS011;11499;49.486;11.104;2023-03-29T02:38:18;2.97;;;2.23;;
22665;SDS011;11499;49.486;11.104;2023-03-29T02:40:45;2.90;;;2.40;;
22665;SDS011;11499;49.486;11.104;2023-03-29T02:43:11;4.80;;;2.23;;
22665;SDS011;11499;49.486;11.104;2023-03-29T02:45:39;3.70;;;2.40;;
22665;SDS011;11499;49.486;11.104;2023-03-29T02:50:39;4.30;;;2.30;;
22665;SDS011;11499;49.486;11.104;2023-03-29T02:53:08;2.67;;;2.30;;
22665;SDS011;11499;49.486;11.104;2023-03-29T02:55:48;3.20;;;2.57;;
22665;SDS011;11499;49.486;11.104;2023-03-29T02:58:14;3.53;;;2.60;;
22665;SDS011;11499;49.486;11.104;2023-03-29T03:00:46;3.63;;;2.77;;
22665;SDS011;11499;49.486;11.104;2023-03-29T03:03:13;2.80;;;2.40;;
22665;SDS011;11499;49.486;11.104;2023-03-29T03:05:41;3.77;;;2.37;;
22665;SDS011;11499;49.486;11.104;2023-03-29T03:08:07;4.10;;;2.27;;
22665;SDS011;11499;49.486;11.104;2023-03-29T03:10:34;3.30;;;2.50;;
22665;SDS011;11499;49.486;11.104;2023-03-29T03:13:00;2.83;;;2.40;;
22665;SDS011;11499;49.486;11.104;2023-03-29T03:15:26;3.77;;;2.20;;
22665;SDS011;11499;49.486;11.104;2023-03-29T03:17:52;3.63;;;2.40;;
22665;SDS011;11499;49.486;11.104;2023-03-29T03:23:46;4.30;;;2.10;;
22665;SDS011;11499;49.486;11.104;2023-03-29T03:26:12;2.97;;;2.20;;
22665;SDS011;11499;49.486;11.104;2023-03-29T03:28:39;3.60;;;2.40;;
22665;SDS011;11499;49.486;11.104;2023-03-29T03:31:05;3.60;;;2.50;;
22665;SDS011;11499;49.486;11.104;2023-03-29T03:33:31;2.23;;;2.03;;
22665;SDS011;11499;49.486;11.104;2023-03-29T03:35:58;2.60;;;2.20;;
22665;SDS011;11499;49.486;11.104;2023-03-29T03:38:30;4.03;;;2.30;;
22665;SDS011;11499;49.486;11.104;2023-03-29T03:40:56;3.37;;;2.27;;
22665;SDS011;11499;49.486;11.104;2023-03-29T03:43:26;3.73;;;2.57;;
22665;SDS011;11499;49.486;11.104;2023-03-29T03:45:52;2.43;;;2.13;;
22665;SDS011;11499;49.486;11.104;2023-03-29T03:48:18;3.33;;;2.37;;
22665;SDS011;11499;49.486;11.104;2023-03-29T03:50:54;2.47;;;2.27;;
22665;SDS011;11499;49.486;11.104;2023-03-29T03:54:53;2.60;;;2.30;;
22665;SDS011;11499;49.486;11.104;2023-03-29T03:57:19;3.30;;;2.23;;
22665;SDS011;11499;49.486;11.104;2023-03-29T03:59:45;2.97;;;2.30;;
22665;SDS011;11499;49.486;11.104;2023-03-29T04:02:11;3.63;;;2.20;;
22665;SDS011;11499;49.486;11.104;2023-03-29T04:04:37;3.40;;;2.33;;
22665;SDS011;11499;49.486;11.104;2023-03-29T04:07:03;3.23;;;2.40;;
22665;SDS011;11499;49.486;11.104;2023-03-29T04:09:29;2.60;;;2.30;;
22665;SDS011;11499;49.486;11.104;2023-03-29T04:11:55;3.90;;;2.60;;
22665;SDS011;11499;49.486;11.104;2023-03-29T04:14:21;4.70;;;2.23;;
22665;SDS011;11499;49.486;11.104;2023-03-29T04:16:46;3.07;;;2.20;;
22665;SDS011;11499;49.486;11.104;2023-03-29T04:22:00;4.37;;;2.57;;
22665;SDS011;11499;49.486;11.104;2023-03-29T04:24:25;3.53;;;2.57;;
22665;SDS011;11499;49.486;11.104;2023-03-29T04:26:51;3.83;;;2.43;;
22665;SDS011;11499;49.486;11.104;2023-03-29T04:29:16;4.87;;;2.40;;
22665;SDS011;11499;49.486;11.104;2023-03-29T04:31:42;3.90;;;2.50;;
22665;SDS011;11499;49.486;11.104;2023-03-29T04:34:07;2.90;;;2.30;;
22665;SDS011;11499;49.486;11.104;2023-03-29T04:36:33;2.47;;;2.27;;
22665;SDS011;11499;49.486;11.104;2023-03-29T04:38:58;3.10;;;2.57;;
22665;SDS011;11499;49.486;11.104;2023-03-29T04:41:25;2.57;;;2.30;;
22665;SDS011;11499;49.486;11.104;2023-03-29T04:43:51;4.97;;;2.60;;
22665;SDS011;11499;49.486;11.104;2023-03-29T04:49:00;3.27;;;2.30;;
22665;SDS011;11499;49.486;11.104;2023-03-29T04:51:26;2.90;;;2.57;;
22665;SDS011;11499;49.486;11.104;2023-03-29T04:53:52;4.13;;;2.83;;
22665;SDS011;11499;49.486;11.104;2023-03-29T04:56:17;3.77;;;2.67;;
22665;SDS011;11499;49.486;11.104;2023-03-29T04:58:43;3.10;;;2.70;;
22665;SDS011;11499;49.486;11.104;2023-03-29T05:01:09;3.60;;;2.80;;
22665;SDS011;11499;49.486;11.104;2023-03-29T05:03:34;4.93;;;3.00;;
22665;SDS011;11499;49.486;11.104;2023-03-29T05:06:01;2.77;;;2.40;;
22665;SDS011;11499;49.486;11.104;2023-03-29T05:08:32;3.53;;;3.00;;
22665;SDS011;11499;49.486;11.104;2023-03-29T05:10:58;4.03;;;3.03;;
22665;SDS011;11499;49.486;11.104;2023-03-29T05:16:01;3.40;;;3.10;;
22665;SDS011;11499;49.486;11.104;2023-03-29T05:18:28;3.77;;;3.27;;
22665;SDS011;11499;49.486;11.104;2023-03-29T05:20:55;5.10;;;3.00;;
22665;SDS011;11499;49.486;11.104;2023-03-29T05:23:22;3.97;;;3.20;;
22665;SDS011;11499;49.486;11.104;2023-03-29T05:25:48;3.43;;;2.80;;
22665;SDS011;11499;49.486;11.104;2023-03-29T05:28:14;3.77;;;3.10;;
22665;SDS011;11499;49.486;11.104;2023-03-29T05:30:41;6.07;;;3.27;;
22665;SDS011;11499;49.486;11.104;2023-03-29T05:33:07;3.00;;;2.70;;
22665;SDS011;11499;49.486;11.104;2023-03-29T05:35:32;6.13;;;2.73;;
22665;SDS011;11499;49.486;11.104;2023-03-29T05:37:59;2.93;;;2.63;;
22665;SDS011;11499;49.486;11.104;2023-03-29T05:42:58;3.83;;;3.17;;
22665;SDS011;11499;49.486;11.104;2023-03-29T05:45:26;4.87;;;3.47;;
22665;SDS011;11499;49.486;11.104;2023-03-29T05:47:53;4.23;;;3.33;;
22665;SDS011;11499;49.486;11.104;2023-03-29T05:50:19;3.93;;;2.87;;
22665;SDS011;11499;49.486;11.104;2023-03-29T05:52:44;5.07;;;3.70;;
22665;SDS011;11499;49.486;11.104;2023-03-29T05:55:11;5.80;;;3.50;;
22665;SDS011;11499;49.486;11.104;2023-03-29T05:57:37;5.43;;;3.70;;
22665;SDS011;11499;49.486;11.104;2023-03-29T06:00:04;4.47;;;3.10;;
22665;SDS011;11499;49.486;11.104;2023-03-29T06:02:44;4.67;;;3.00;;
22665;SDS011;11499;49.486;11.104;2023-03-29T06:05:09;3.37;;;3.00;;
22665;SDS011;11499;49.486;11.104;2023-03-29T06:10:20;4.27;;;2.73;;
22665;SDS011;11499;49.486;11.104;2023-03-29T06:12:47;5.23;;;3.10;;
22665;SDS011;11499;49.486;11.104;2023-03-29T06:15:14;3.20;;;2.90;;
22665;SDS011;11499;49.486;11.104;2023-03-29T06:17:40;3.93;;;2.90;;
22665;SDS011;11499;49.486;11.104;2023-03-29T06:20:06;4.30;;;2.90;;
22665;SDS011;11499;49.486;11.104;2023-03-29T06:22:35;3.47;;;2.73;;
22665;SDS011;11499;49.486;11.104;2023-03-29T06:25:04;5.63;;;3.23;;
22665;SDS011;11499;49.486;11.104;2023-03-29T06:27:31;4.70;;;3.23;;
22665;SDS011;11499;49.486;11.104;2023-03-29T06:30:00;4.37;;;3.40;;
22665;SDS011;11499;49.486;11.104;2023-03-29T06:32:26;5.40;;;2.83;;
22665;SDS011;11499;49.486;11.104;2023-03-29T06:37:51;3.73;;;3.23;;
22665;SDS011;11499;49.486;11.104;2023-03-29T06:40:19;4.67;;;3.30;;
22665;SDS011;11499;49.486;11.104;2023-03-29T06:42:48;6.20;;;3.30;;
22665;SDS011;11499;49.486;11.104;2023-03-29T06:45:14;5.33;;;3.20;;
22665;SDS011;11499;49.486;11.104;2023-03-29T06:47:40;3.20;;;2.90;;
22665;SDS011;11499;49.486;11.104;2023-03-29T06:50:06;6.40;;;3.30;;
22665;SDS011;11499;49.486;11.104;2023-03-29T06:52:32;4.60;;;3.27;;
22665;SDS011;11499;49.486;11.104;2023-03-29T06:54:58;5.77;;;3.40;;
22665;SDS011;11499;49.486;11.104;2023-03-29T06:57:26;3.53;;;3.00;;
22665;SDS011;11499;49.486;11.104;2023-03-29T06:59:52;3.23;;;2.93;;
22665;SDS011;11499;49.486;11.104;2023-03-29T07:04:54;5.30;;;3.10;;
22665;SDS011;11499;49.486;11.104;2023-03-29T07:07:20;5.03;;;3.17;;
22665;SDS011;11499;49.486;11.104;2023-03-29T07:09:46;4.23;;;3.40;;
22665;SDS011;11499;49.486;11.104;2023-03-29T07:12:20;3.80;;;3.33;;
22665;SDS011;11499;49.486;11.104;2023-03-29T07:14:46;4.67;;;3.13;;
22665;SDS011;11499;49.486;11.104;2023-03-29T07:17:12;5.10;;;3.03;;
22665;SDS011;11499;49.486;11.104;2023-03-29T07:19:38;5.37;;;3.00;;
22665;SDS011;11499;49.486;11.104;2023-03-29T07:22:04;7.77;;;3.13;;
22665;SDS011;11499;49.486;11.104;2023-03-29T07:24:30;5.83;;;2.83;;
22665;SDS011;11499;49.486;11.104;2023-03-29T07:26:55;4.03;;;3.30;;
22665;SDS011;11499;49.486;11.104;2023-03-29T07:32:10;5.63;;;3.23;;
22665;SDS011;11499;49.486;11.104;2023-03-29T07:34:36;3.87;;;3.40;;
22665;SDS011;11499;49.486;11.104;2023-03-29T07:37:01;5.27;;;2.90;;
22665;SDS011;11499;49.486;11.104;2023-03-29T07:39:27;3.83;;;2.80;;
22665;SDS011;11499;49.486;11.104;2023-03-29T07:41:55;3.03;;;2.43;;
22665;SDS011;11499;49.486;11.104;2023-03-29T07:44:21;3.70;;;3.00;;
22665;SDS011;11499;49.486;11.104;2023-03-29T07:46:47;7.87;;;3.10;;
22665;SDS011;11499;49.486;11.104;2023-03-29T07:49:13;4.20;;;2.60;;
22665;SDS011;11499;49.486;11.104;2023-03-29T07:51:38;3.43;;;2.90;;
22665;SDS011;11499;49.486;11.104;2023-03-29T07:54:04;8.00;;;2.87;;
22665;SDS011;11499;49.486;11.104;2023-03-29T07:59:15;3.40;;;2.80;;
22665;SDS011;11499;49.486;11.104;2023-03-29T08:01:40;3.67;;;2.70;;
22665;SDS011;11499;49.486;11.104;2023-03-29T08:04:06;4.97;;;2.80;;
22665;SDS011;11499;49.486;11.104;2023-03-29T08:06:31;3.23;;;2.50;;
22665;SDS011;11499;49.486;11.104;2023-03-29T08:08:58;4.73;;;3.20;;
22665;SDS011;11499;49.486;11.104;2023-03-29T08:11:24;4.90;;;2.90;;
22665;SDS011;11499;49.486;11.104;2023-03-29T08:13:49;5.07;;;2.73;;
22665;SDS011;11499;49.486;11.104;2023-03-29T08:16:15;5.37;;;3.80;;
22665;SDS011;11499;49.486;11.104;2023-03-29T08:18:41;6.00;;;2.93;;
22665;SDS011;11499;49.486;11.104;2023-03-29T08:21:07;4.57;;;2.77;;
22665;SDS011;11499;49.486;11.104;2023-03-29T08:26:13;5.40;;;3.27;;
22665;SDS011;11499;49.486;11.104;2023-03-29T08:28:39;6.67;;;3.07;;
22665;SDS011;11499;49.486;11.104;2023-03-29T08:31:06;3.20;;;2.90;;
22665;SDS011;11499;49.486;11.104;2023-03-29T08:33:33;6.20;;;2.80;;
22665;SDS011;11499;49.486;11.104;2023-03-29T08:35:59;3.90;;;2.83;;
22665;SDS011;11499;49.486;11.104;2023-03-29T08:38:25;3.70;;;2.70;;
22665;SDS011;11499;49.486;11.104;2023-03-29T08:40:51;6.07;;;3.03;;
22665;SDS011;11499;49.486;11.104;2023-03-29T08:43:22;4.90;;;2.73;;
22665;SDS011;11499;49.486;11.104;2023-03-29T08:46:21;4.37;;;3.00;;
22665;SDS011;11499;49.486;11.104;2023-03-29T08:48:59;3.47;;;2.60;;
22665;SDS011;11499;49.486;11.104;2023-03-29T08:53:19;2.40;;;2.17;;
22665;SDS011;11499;49.486;11.104;2023-03-29T08:55:46;6.93;;;3.00;;
22665;SDS011;11499;49.486;11.104;2023-03-29T08:58:14;4.63;;;3.10;;
22665;SDS011;11499;49.486;11.104;2023-03-29T09:00:43;4.50;;;2.87;;
22665;SDS011;11499;49.486;11.104;2023-03-29T09:03:15;3.80;;;2.80;;
22665;SDS011;11499;49.486;11.104;2023-03-29T09:05:47;3.20;;;2.90;;
22665;SDS011;11499;49.486;11.104;2023-03-29T09:08:15;4.20;;;3.00;;
22665;SDS011;11499;49.486;11.104;2023-03-29T09:10:46;4.90;;;3.17;;
22665;SDS011;11499;49.486;11.104;2023-03-29T09:13:42;3.37;;;2.80;;
22665;SDS011;11499;49.486;11.104;2023-03-29T09:19:24;3.27;;;2.93;;
22665;SDS011;11499;49.486;11.104;2023-03-29T09:22:14;4.13;;;3.00;;
22665;SDS011;11499;49.486;11.104;2023-03-29T09:27:35;4.77;;;3.27;;
22665;SDS011;11499;49.486;11.104;2023-03-29T09:32:57;3.42;;;3.10;;
22665;SDS011;11499;49.486;11.104;2023-03-29T09:35:40;4.28;;;2.72;;
22665;SDS011;11499;49.486;11.104;2023-03-29T09:38:13;3.15;;;2.67;;
22665;SDS011;11499;49.486;11.104;2023-03-29T09:40:44;4.82;;;2.38;;
22665;SDS011;11499;49.486;11.104;2023-03-29T09:45:55;3.78;;;2.40;;
22665;SDS011;11499;49.486;11.104;2023-03-29T09:48:25;3.33;;;2.25;;
22665;SDS011;11499;49.486;11.104;2023-03-29T09:50:55;3.37;;;2.40;;
22665;SDS011;11499;49.486;11.104;2023-03-29T09:53:21;2.78;;;2.17;;
22665;SDS011;11499;49.486;11.104;2023-03-29T09:55:49;3.05;;;2.25;;
22665;SDS011;11499;49.486;11.104;2023-03-29T09:58:22;3.72;;;2.25;;
22665;SDS011;11499;49.486;11.104;2023-03-29T10:00:49;2.50;;;2.00;;
22665;SDS011;11499;49.486;11.104;2023-03-29T10:03:18;3.63;;;1.90;;
22665;SDS011;11499;49.486;11.104;2023-03-29T10:06:05;2.13;;;1.70;;
22665;SDS011;11499;49.486;11.104;2023-03-29T10:08:37;3.97;;;2.03;;
22665;SDS011;11499;49.486;11.104;2023-03-29T10:13:46;3.37;;;1.73;;
22665;SDS011;11499;49.486;11.104;2023-03-29T10:16:22;2.30;;;1.83;;
22665;SDS011;11499;49.486;11.104;2023-03-29T10:18:49;2.30;;;2.00;;
22665;SDS011;11499;49.486;11.104;2023-03-29T10:21:16;3.57;;;1.80;;
22665;SDS011;11499;49.486;11.104;2023-03-29T10:23:46;2.87;;;1.80;;
22665;SDS011;11499;49.486;11.104;2023-03-29T10:26:16;2.23;;;1.63;;
22665;SDS011;11499;49.486;11.104;2023-03-29T10:28:51;3.20;;;1.87;;
22665;SDS011;11499;49.486;11.104;2023-03-29T10:31:21;3.70;;;1.97;;
22665;SDS011;11499;49.486;11.104;2023-03-29T10:33:54;2.83;;;1.93;;
22665;SDS011;11499;49.486;11.104;2023-03-29T10:36:22;2.43;;;1.70;;
22665;SDS011;11499;49.486;11.104;2023-03-29T10:41:16;2.77;;;1.90;;
22665;SDS011;11499;49.486;11.104;2023-03-29T10:43:44;2.80;;;2.10;;
22665;SDS011;11499;49.486;11.104;2023-03-29T10:46:18;1.77;;;1.53;;
22665;SDS011;11499;49.486;11.104;2023-03-29T10:48:50;2.23;;;1.50;;
22665;SDS011;11499;49.486;11.104;2023-03-29T10:51:21;2.10;;;1.37;;
22665;SDS011;11499;49.486;11.104;2023-03-29T10:53:48;2.93;;;2.00;;
22665;SDS011;11499;49.486;11.104;2023-03-29T11:21:10;2.70;;;1.40;;
22665;SDS011;11499;49.486;11.104;2023-03-29T11:28:49;2.93;;;1.37;;
22665;SDS011;11499;49.486;11.104;2023-03-29T11:37:22;2.17;;;1.40;;
22665;SDS011;11499;49.486;11.104;2023-03-29T11:42:49;2.53;;;1.33;;
22665;SDS011;11499;49.486;11.104;2023-03-29T11:45:22;2.80;;;2.00;;
22665;SDS011;11499;49.486;11.104;2023-03-29T11:47:53;5.37;;;2.07;;
22665;SDS011;11499;49.486;11.104;2023-03-29T11:50:24;2.57;;;2.00;;
22665;SDS011;11499;49.486;11.104;2023-03-29T11:53:10;2.17;;;1.70;;
22665;SDS011;11499;49.486;11.104;2023-03-29T11:55:43;2.57;;;1.60;;
22665;SDS011;11499;49.486;11.104;2023-03-29T12:00:36;3.20;;;2.03;;
22665;SDS011;11499;49.486;11.104;2023-03-29T12:03:13;3.40;;;1.83;;
22665;SDS011;11499;49.486;11.104;2023-03-29T12:05:54;2.55;;;1.50;;
22665;SDS011;11499;49.486;11.104;2023-03-29T12:08:29;2.00;;;1.30;;
22665;SDS011;11499;49.486;11.104;2023-03-29T12:13:48;2.47;;;1.45;;
22665;SDS011;11499;49.486;11.104;2023-03-29T12:16:32;3.28;;;1.58;;
22665;SDS011;11499;49.486;11.104;2023-03-29T12:19:32;3.88;;;1.80;;
22665;SDS011;11499;49.486;11.104;2023-03-29T12:21:57;2.63;;;1.70;;
22665;SDS011;11499;49.486;11.104;2023-03-29T12:30:12;2.78;;;1.92;;
22665;SDS011;11499;49.486;11.104;2023-03-29T12:33:09;2.78;;;1.30;;
22665;SDS011;11499;49.486;11.104;2023-03-29T12:35:51;4.72;;;1.80;;
22665;SDS011;11499;49.486;11.104;2023-03-29T12:38:24;2.15;;;1.45;;
22665;SDS011;11499;49.486;11.104;2023-03-29T12:40:56;2.47;;;1.52;;
22665;SDS011;11499;49.486;11.104;2023-03-29T12:43:36;3.85;;;1.60;;
22665;SDS011;11499;49.486;11.104;2023-03-29T12:46:07;3.88;;;1.60;;
22665;SDS011;11499;49.486;11.104;2023-03-29T12:48:39;3.67;;;1.50;;
22665;SDS011;11499;49.486;11.104;2023-03-29T12:51:12;2.08;;;1.52;;
22665;SDS011;11499;49.486;11.104;2023-03-29T12:59:45;4.10;;;1.70;;
22665;SDS011;11499;49.486;11.104;2023-03-29T13:07:13;6.85;;;1.48;;
22665;SDS011;11499;49.486;11.104;2023-03-29T13:09:53;2.67;;;1.23;;
22665;SDS011;11499;49.486;11.104;2023-03-29T13:12:34;4.07;;;1.42;;
22665;SDS011;11499;49.486;11.104;2023-03-29T13:15:05;2.67;;;1.52;;
22665;SDS011;11499;49.486;11.104;2023-03-29T13:25:13;5.35;;;1.50;;
22665;SDS011;11499;49.486;11.104;2023-03-29T13:31:16;2.08;;;1.55;;
22665;SDS011;11499;49.486;11.104;2023-03-29T13:39:49;3.33;;;1.58;;
22665;SDS011;11499;49.486;11.104;2023-03-29T13:50:52;2.85;;;1.73;;
22665;SDS011;11499;49.486;11.104;2023-03-29T13:53:30;3.20;;;1.80;;
22665;SDS011;11499;49.486;11.104;2023-03-29T13:56:26;3.85;;;1.95;;
22665;SDS011;11499;49.486;11.104;2023-03-29T13:59:11;4.25;;;1.70;;
22665;SDS011;11499;49.486;11.104;2023-03-29T14:01:42;2.40;;;1.50;;
22665;SDS011;11499;49.486;11.104;2023-03-29T14:04:13;4.68;;;1.90;;
22665;SDS011;11499;49.486;11.104;2023-03-29T14:06:47;3.33;;;1.88;;
22665;SDS011;11499;49.486;11.104;2023-03-29T14:09:16;3.22;;;1.80;;
22665;SDS011;11499;49.486;11.104;2023-03-29T14:13:21;3.35;;;2.00;;
22665;SDS011;11499;49.486;11.104;2023-03-29T14:15:52;2.45;;;1.83;;
22665;SDS011;11499;49.486;11.104;2023-03-29T14:18:26;3.35;;;1.90;;
22665;SDS011;11499;49.486;11.104;2023-03-29T14:20:56;3.60;;;1.90;;
22665;SDS011;11499;49.486;11.104;2023-03-29T14:23:25;2.85;;;1.88;;
22665;SDS011;11499;49.486;11.104;2023-03-29T14:25:54;2.50;;;1.60;;
22665;SDS011;11499;49.486;11.104;2023-03-29T14:28:30;3.77;;;2.00;;
22665;SDS011;11499;49.486;11.104;2023-03-29T14:30:56;3.92;;;1.98;;
22665;SDS011;11499;49.486;11.104;2023-03-29T14:33:23;3.33;;;1.63;;
22665;SDS011;11499;49.486;11.104;2023-03-29T14:38:09;3.20;;;1.73;;
22665;SDS011;11499;49.486;11.104;2023-03-29T14:40:36;3.73;;;1.70;;
22665;SDS011;11499;49.486;11.104;2023-03-29T14:43:03;5.07;;;2.10;;
22665;SDS011;11499;49.486;11.104;2023-03-29T14:45:31;4.30;;;2.03;;
22665;SDS011;11499;49.486;11.104;2023-03-29T14:47:57;2.50;;;1.65;;
22665;SDS011;11499;49.486;11.104;2023-03-29T14:50:25;3.17;;;1.90;;
22665;SDS011;11499;49.486;11.104;2023-03-29T14:52:53;4.03;;;1.77;;
22665;SDS011;11499;49.486;11.104;2023-03-29T14:55:21;2.85;;;1.90;;
22665;SDS011;11499;49.486;11.104;2023-03-29T14:57:49;3.15;;;1.83;;
22665;SDS011;11499;49.486;11.104;2023-03-29T15:00:18;3.57;;;1.80;;
22665;SDS011;11499;49.486;11.104;2023-03-29T15:04:32;2.50;;;1.80;;
22665;SDS011;11499;49.486;11.104;2023-03-29T15:06:59;4.33;;;1.97;;
22665;SDS011;11499;49.486;11.104;2023-03-29T15:09:27;2.87;;;1.70;;
22665;SDS011;11499;49.486;11.104;2023-03-29T15:11:57;3.30;;;1.80;;
22665;SDS011;11499;49.486;11.104;2023-03-29T15:14:25;3.33;;;2.40;;
22665;SDS011;11499;49.486;11.104;2023-03-29T15:17:00;3.53;;;2.03;;
22665;SDS011;11499;49.486;11.104;2023-03-29T15:19:46;3.63;;;1.80;;
22665;SDS011;11499;49.486;11.104;2023-03-29T15:22:15;3.23;;;1.90;;
22665;SDS011;11499;49.486;11.104;2023-03-29T15:24:42;2.50;;;1.80;;
22665;SDS011;11499;49.486;11.104;2023-03-29T15:30:32;3.87;;;2.07;;
22665;SDS011;11499;49.486;11.104;2023-03-29T15:35:45;2.87;;;1.80;;
22665;SDS011;11499;49.486;11.104;2023-03-29T15:38:17;3.40;;;2.00;;
22665;SDS011;11499;49.486;11.104;2023-03-29T15:40:44;5.57;;;2.27;;
22665;SDS011;11499;49.486;11.104;2023-03-29T15:43:11;3.97;;;2.30;;
22665;SDS011;11499;49.486;11.104;2023-03-29T15:45:37;3.83;;;1.83;;
22665;SDS011;11499;49.486;11.104;2023-03-29T15:48:22;2.83;;;1.83;;
22665;SDS011;11499;49.486;11.104;2023-03-29T15:50:49;2.43;;;1.80;;
22665;SDS011;11499;49.486;11.104;2023-03-29T15:55:52;2.70;;;2.00;;
22665;SDS011;11499;49.486;11.104;2023-03-29T15:58:21;4.63;;;2.17;;
22665;SDS011;11499;49.486;11.104;2023-03-29T16:00:53;3.10;;;1.97;;
22665;SDS011;11499;49.486;11.104;2023-03-29T16:03:39;3.27;;;1.83;;
22665;SDS011;11499;49.486;11.104;2023-03-29T16:06:08;4.20;;;2.00;;
22665;SDS011;11499;49.486;11.104;2023-03-29T16:08:35;2.73;;;1.77;;
22665;SDS011;11499;49.486;11.104;2023-03-29T16:11:00;3.77;;;2.00;;
22665;SDS011;11499;49.486;11.104;2023-03-29T16:13:26;2.63;;;1.70;;
22665;SDS011;11499;49.486;11.104;2023-03-29T16:15:51;2.57;;;1.90;;
22665;SDS011;11499;49.486;11.104;2023-03-29T16:20:51;3.23;;;2.93;;
22665;SDS011;11499;49.486;11.104;2023-03-29T16:23:17;3.30;;;1.67;;
22665;SDS011;11499;49.486;11.104;2023-03-29T16:25:42;2.55;;;1.95;;
22665;SDS011;11499;49.486;11.104;2023-03-29T16:28:08;5.23;;;2.40;;
22665;SDS011;11499;49.486;11.104;2023-03-29T16:30:34;3.27;;;1.80;;
22665;SDS011;11499;49.486;11.104;2023-03-29T16:33:01;2.50;;;1.80;;
22665;SDS011;11499;49.486;11.104;2023-03-29T16:35:30;2.93;;;1.90;;
22665;SDS011;11499;49.486;11.104;2023-03-29T16:37:57;2.43;;;1.87;;
22665;SDS011;11499;49.486;11.104;2023-03-29T16:40:22;5.60;;;2.30;;
22665;SDS011;11499;49.486;11.104;2023-03-29T16:45:26;3.27;;;1.87;;
22665;SDS011;11499;49.486;11.104;2023-03-29T16:47:51;2.53;;;1.80;;
22665;SDS011;11499;49.486;11.104;2023-03-29T16:50:18;5.50;;;2.10;;
22665;SDS011;11499;49.486;11.104;2023-03-29T16:52:45;4.20;;;1.97;;
22665;SDS011;11499;49.486;11.104;2023-03-29T16:55:16;3.97;;;2.00;;
22665;SDS011;11499;49.486;11.104;2023-03-29T16:57:42;3.60;;;2.20;;
22665;SDS011;11499;49.486;11.104;2023-03-29T17:00:10;3.73;;;2.00;;
22665;SDS011;11499;49.486;11.104;2023-03-29T17:02:39;4.17;;;2.13;;
22665;SDS011;11499;49.486;11.104;2023-03-29T17:05:09;3.20;;;2.00;;
22665;SDS011;11499;49.486;11.104;2023-03-29T17:10:25;5.13;;;2.20;;
22665;SDS011;11499;49.486;11.104;2023-03-29T17:12:51;4.57;;;2.60;;
22665;SDS011;11499;49.486;11.104;2023-03-29T17:15:17;4.50;;;3.10;;
22665;SDS011;11499;49.486;11.104;2023-03-29T17:17:42;5.77;;;2.50;;
22665;SDS011;11499;49.486;11.104;2023-03-29T17:20:09;3.70;;;2.60;;
22665;SDS011;11499;49.486;11.104;2023-03-29T17:22:38;2.90;;;2.00;;
22665;SDS011;11499;49.486;11.104;2023-03-29T17:25:04;5.10;;;2.57;;
22665;SDS011;11499;49.486;11.104;2023-03-29T17:27:31;6.30;;;2.47;;
22665;SDS011;11499;49.486;11.104;2023-03-29T17:29:58;4.43;;;2.77;;
22665;SDS011;11499;49.486;11.104;2023-03-29T17:32:24;4.70;;;2.60;;
22665;SDS011;11499;49.486;11.104;2023-03-29T17:36:18;3.67;;;2.60;;
22665;SDS011;11499;49.486;11.104;2023-03-29T17:38:47;3.23;;;2.70;;
22665;SDS011;11499;49.486;11.104;2023-03-29T17:41:14;4.87;;;2.90;;
22665;SDS011;11499;49.486;11.104;2023-03-29T17:43:40;4.07;;;2.93;;
22665;SDS011;11499;49.486;11.104;2023-03-29T17:46:06;3.57;;;2.40;;
22665;SDS011;11499;49.486;11.104;2023-03-29T17:48:31;4.37;;;3.00;;
22665;SDS011;11499;49.486;11.104;2023-03-29T17:50:57;6.40;;;2.80;;
22665;SDS011;11499;49.486;11.104;2023-03-29T17:53:23;4.60;;;3.07;;
22665;SDS011;11499;49.486;11.104;2023-03-29T17:55:49;5.00;;;3.40;;
22665;SDS011;11499;49.486;11.104;2023-03-29T17:58:15;6.97;;;3.63;;
22665;SDS011;11499;49.486;11.104;2023-03-29T18:03:22;6.83;;;3.03;;
22665;SDS011;11499;49.486;11.104;2023-03-29T18:05:48;7.27;;;3.47;;